Weather at Lake Brooks Seaplane Base

Public forecast

Using degrees Fahrenheit for public forecast. Weather courtesy of forecast.io.

Closest aviation weather report (METAR) to Lake Brooks Seaplane Base

Closest report is King Salmon Airport, 28.2 nm (52.3 km) WNW. Retrieved 2020/09/20 09:54 UTC (54 minutes ago):

PAKN 200954Z 15006KT 10SM SCT065 04/03 A2982

Closest aviation forecast (TAF) to Lake Brooks Seaplane Base

Closest forecast is King Salmon Airport, 28.2 nm (52.3 km) WNW. Retrieved 2020/09/20 06:27 UTC (4 hours ago):

TAF TAF PAKN 200520Z 2006/2106 27005KT P6SM SCT050 FM200900 VRB03KT P6SM FEW003 BKN050 FM201500 VRB04KT P6SM FEW003 BKN025